EmailTwitter


Surface observations / United Kingdom / EGLL (03772)

Regions: Quebec | Canada | USA | Europe | France | UK | Elsewhere
Station
Display
Info & Location for EGLL (03772) | Help decoding METAR

Weather Conditions observed on 2017/08/20 at 13:20 UTC at LONDON/HEATHROW, UK (EGLL)

Sky conditions: partly cloudy.

Temperature: 21.0 Celsius.

Dewpoint: 8.0 Celsius.

Relative Humidity: 43%

Winds: Southwest at 24 km/h or 13 knots.

Mean Sea level Pressure: 102.40 kilopascals.

Horizontal visibility: 6.21 statute miles or 9.94 kilometers.

Height of the Ceiling: 1433 metres ( 4700 feet ).

Coded METAR:

EGLL 201320Z AUTO 24013KT 9999 BKN047 21/08 Q1024 NOSIG=